Time;durP1;ratioP1;P1;durP2;ratioP2;P2;SDS_P1;SDS_P2;PMS_P1;PMS_P2;Temp;Humidity;BMP_temperature;BMP_pressure;BME280_temperature;BME280_humidity;BME280_pressure;Samples;Min_cycle;Max_cycle;Signal;HPM_P1;HPM_P2
2021/04/07 04:58:49;;;;;;;;;;;;;;;0.71;85.08;96646.59;1663529;82;20642;-69
2021/04/07 05:01:50;;;;;;;;;;;;;;;0.70;85.10;96648.88;1703205;81;20473;-65
2021/04/07 05:04:52;;;;;;;;;;;;;;;0.71;84.30;96653.05;1658970;84;21990;-67
2021/04/07 05:07:53;;;;;;;;;;;;;;;0.69;82.86;96645.99;1686514;83;20176;-69
2021/04/07 05:10:55;;;;;;;;;;;;;;;0.68;82.77;96648.28;1678640;83;20528;-65
2021/04/07 05:13:56;;;;;;;;;;;;;;;0.67;82.71;96654.45;1699816;81;20742;-67
2021/04/07 05:16:57;;;;;;;;;;;;;;;0.70;82.74;96647.58;1712652;81;20636;-65
2021/04/07 05:19:58;;;;;;;;;;;;;;;0.70;81.74;96649.67;1702782;81;22197;-66
2021/04/07 05:25:28;;;;;;;;;;;;;;;0.74;81.35;96650.83;1667381;83;20449;-70
2021/04/07 05:28:30;;;;;;;;;;;;;;;0.76;80.69;96649.33;1701403;81;20834;-67
2021/04/07 05:31:33;;;;;;;;;;;;;;;0.82;81.05;96651.57;1708404;81;20817;-68
2021/04/07 05:34:34;;;;;;;;;;;;;;;0.91;80.69;96654.20;1698709;82;21841;-76
2021/04/07 05:37:36;;;;;;;;;;;;;;;1.00;80.46;96645.19;1668938;83;20408;-65
2021/04/07 05:40:37;;;;;;;;;;;;;;;1.05;78.78;96647.92;1672615;83;20413;-67
2021/04/07 05:43:44;;;;;;;;;;;;;;;1.04;77.92;96648.41;1680063;82;20647;-67
2021/04/07 05:46:46;;;;;;;;;;;;;;;1.01;77.85;96651.41;1696141;81;20759;-64
2021/04/07 05:52:00;;;;;;;;;;;;;;;0.92;77.46;96655.28;1726466;80;20433;-67
2021/04/07 05:55:01;;;;;;;;;;;;;;;0.93;77.11;96643.94;1711903;81;20601;-72
2021/04/07 06:00:30;;;;;;;;;;;;;;;0.94;77.22;96657.14;1692221;82;20742;-64
2021/04/07 06:03:32;;;;;;;;;;;;;;;0.98;77.28;96657.03;1675583;83;21965;-68
2021/04/07 06:06:55;;;;;;;;;;;;;;;1.02;76.78;96661.27;1711363;81;20575;-70
2021/04/07 06:09:56;;;;;;;;;;;;;;;1.04;75.71;96657.97;1704487;81;20605;-66
2021/04/07 06:12:57;;;;;;;;;;;;;;;1.07;76.11;96661.44;1670250;83;20731;-66
2021/04/07 06:15:47;;;;;;;;;;;;;;;1.10;75.24;96661.80;1684155;83;20682;-65
2021/04/07 06:18:53;;;;;;;;;;;;;;;1.12;75.64;96671.45;1691032;82;20572;-69
2021/04/07 06:21:55;;;;;;;;;;;;;;;1.20;74.58;96672.19;1663116;84;20853;-68
2021/04/07 06:24:56;;;;;;;;;;;;;;;1.20;73.94;96665.21;1646168;85;20471;-65
2021/04/07 06:27:58;;;;;;;;;;;;;;;1.23;73.89;96672.54;1668078;83;20758;-65
2021/04/07 06:31:00;;;;;;;;;;;;;;;1.28;73.57;96667.54;1678761;83;20487;-69
2021/04/07 06:33:43;;;;;;;;;;;;;;;1.40;73.53;96672.30;1677202;81;21358;-69
2021/04/07 06:36:43;;;;;;;;;;;;;;;1.49;72.76;96673.62;1692489;82;20403;-67
2021/04/07 06:39:44;;;;;;;;;;;;;;;1.60;72.92;96679.88;1690183;83;20570;-68
2021/04/07 06:42:46;;;;;;;;;;;;;;;1.76;71.74;96679.33;1712328;82;20646;-68
2021/04/07 06:45:47;;;;;;;;;;;;;;;1.87;71.16;96686.90;1702290;82;20961;-69
2021/04/07 06:48:48;;;;;;;;;;;;;;;1.98;70.87;96678.89;1714537;82;21907;-69
2021/04/07 06:51:50;;;;;;;;;;;;;;;2.05;70.80;96684.80;1705821;82;20715;-67
2021/04/07 06:54:23;;;;;;;;;;;;;;;2.12;70.35;96686.81;1707136;81;20400;-65
2021/04/07 06:56:51;;;;;;;;;;;;;;;2.13;69.96;96686.59;1703036;82;20551;-65
2021/04/07 06:59:21;;;;;;;;;;;;;;;2.13;70.31;96691.78;1707354;82;20582;-71
2021/04/07 07:01:49;;;;;;;;;;;;;;;2.16;69.85;96703.52;1713095;82;22320;-65
2021/04/07 07:04:17;;;;;;;;;;;;;;;2.14;69.14;96700.35;1672550;84;21901;-66
2021/04/07 07:06:46;;;;;;;;;;;;;;;2.08;68.98;96704.61;1664013;84;20492;-67
2021/04/07 07:09:19;;;;;;;;;;;;;;;2.03;69.07;96706.23;1695760;83;20629;-73
2021/04/07 07:11:50;;;;;;;;;;;;;;;2.02;69.49;96709.33;1709311;82;20609;-63
2021/04/07 07:14:19;;;;;;;;;;;;;;;2.01;68.81;96713.45;1680676;83;21974;-67
2021/04/07 07:16:50;;;;;;;;;;;;;;;2.00;69.35;96715.26;1675534;83;20456;-66
2021/04/07 07:19:26;;;;;;;;;;;;;;;2.02;68.82;96718.41;1683820;83;20231;-65
2021/04/07 07:22:06;;;;;;;;;;;;;;;2.01;69.43;96731.59;1685664;83;20615;-69
2021/04/07 07:24:37;;;;;;;;;;;;;;;1.99;69.16;96733.10;1677475;83;20828;-67
2021/04/07 07:27:06;;;;;;;;;;;;;;;2.01;69.17;96733.69;1672757;84;21914;-65
2021/04/07 07:29:36;;;;;;;;;;;;;;;2.00;68.33;96741.17;1663296;84;20229;-66
2021/04/07 07:32:08;;;;;;;;;;;;;;;1.96;68.75;96742.09;1674179;83;20596;-64
2021/04/07 07:34:36;;;;;;;;;;;;;;;2.00;68.98;96746.85;1665299;82;20832;-67
2021/04/07 07:37:05;;;;;;;;;;;;;;;2.05;68.43;96746.98;1679630;83;21399;-66
2021/04/07 07:39:34;;;;;;;;;;;;;;;2.10;68.76;96740.65;1684926;83;22088;-67
2021/04/07 07:42:04;;;;;;;;;;;;;;;2.21;69.26;96739.95;1682743;84;20645;-65
2021/04/07 07:44:35;;;;;;;;;;;;;;;2.31;68.64;96752.67;1683263;83;20411;-67
2021/04/07 07:47:14;;;;;;;;;;;;;;;2.37;68.04;96753.63;1684973;83;20591;-64
2021/04/07 07:49:35;;;;;;;;;;;;;;;2.40;67.33;96760.96;1700324;82;20442;-71
2021/04/07 07:52:03;;;;;;;;;;;;;;;2.41;67.13;96753.98;1719379;81;21325;-69
2021/04/07 07:54:32;;;;;;;;;;;;;;;2.45;67.53;96749.42;1703078;82;20451;-68
2021/04/07 07:57:00;;;;;;;;;;;;;;;2.54;67.80;96755.91;1696263;81;20733;-69
2021/04/07 07:59:33;;;;;;;;;;;;;;;2.67;69.00;96760.92;1680392;82;20947;-69
2021/04/07 08:02:01;;;;;;;;;;;;;;;2.85;65.86;96774.89;1702254;81;20808;-68
2021/04/07 08:04:30;;;;;;;;;;;;;;;2.89;65.29;96767.73;1698374;82;21754;-68
2021/04/07 08:06:59;;;;;;;;;;;;;;;2.91;65.68;96762.33;1694503;81;20401;-74
2021/04/07 08:09:28;;;;;;;;;;;;;;;2.95;66.59;96764.28;1709669;81;20393;-68
2021/04/07 08:11:57;;;;;;;;;;;;;;;2.99;64.75;96776.30;1714491;81;20496;-66
2021/04/07 08:14:31;;;;;;;;;;;;;;;2.99;63.74;96769.31;1710310;82;20685;-68
2021/04/07 08:17:07;;;;;;;;;;;;;;;2.95;63.66;96768.69;1716257;81;21185;-65
2021/04/07 08:19:35;;;;;;;;;;;;;;;2.87;63.61;96763.30;1715693;81;20625;-67
2021/04/07 08:22:04;;;;;;;;;;;;;;;2.88;63.94;96769.28;1714963;81;20389;-70
2021/04/07 08:24:32;;;;;;;;;;;;;;;2.89;63.60;96761.25;1718422;81;20575;-67
2021/04/07 08:27:00;;;;;;;;;;;;;;;2.88;63.75;96764.85;1724356;80;20526;-66
2021/04/07 08:29:35;;;;;;;;;;;;;;;2.94;64.98;96759.31;1689475;82;22159;-68
2021/04/07 08:32:04;;;;;;;;;;;;;;;3.08;66.16;96756.31;1680322;83;20590;-66
2021/04/07 08:34:32;;;;;;;;;;;;;;;3.27;63.71;96758.83;1713020;81;20476;-67
2021/04/07 08:37:00;;;;;;;;;;;;;;;3.32;62.36;96766.73;1719689;81;20525;-69
2021/04/07 08:39:28;;;;;;;;;;;;;;;3.30;62.05;96762.30;1707098;82;20402;-62
2021/04/07 08:41:58;;;;;;;;;;;;;;;3.35;62.53;96776.69;1688429;83;21943;-69
2021/04/07 08:44:26;;;;;;;;;;;;;;;3.45;62.98;96760.07;1721042;81;20641;-69
2021/04/07 08:46:58;;;;;;;;;;;;;;;3.61;64.14;96761.98;1705646;81;20562;-66
2021/04/07 08:49:38;;;;;;;;;;;;;;;3.77;60.84;96764.44;1704010;81;20585;-65
2021/04/07 08:52:19;;;;;;;;;;;;;;;3.80;60.74;96763.49;1718687;81;20605;-66
2021/04/07 08:54:49;;;;;;;;;;;;;;;3.78;60.94;96766.81;1710365;81;21890;-69
2021/04/07 08:57:36;;;;;;;;;;;;;;;3.78;60.22;96768.63;1705799;82;20823;-67
2021/04/07 09:00:09;;;;;;;;;;;;;;;3.81;60.28;96772.08;1718176;81;20582;-68
2021/04/07 09:02:51;;;;;;;;;;;;;;;3.86;58.00;96772.98;1708942;81;20496;-66
2021/04/07 09:05:34;;;;;;;;;;;;;;;3.92;59.42;96764.27;1724527;81;20615;-67
2021/04/07 09:08:02;;;;;;;;;;;;;;;4.03;58.38;96761.41;1706187;81;22170;-67
2021/04/07 09:10:44;;;;;;;;;;;;;;;4.11;58.76;96768.04;1708208;82;20386;-66
2021/04/07 09:13:11;;;;;;;;;;;;;;;4.13;58.65;96762.11;1712232;81;20564;-67
2021/04/07 09:15:48;;;;;;;;;;;;;;;4.01;55.66;96776.43;1706044;81;20587;-75
2021/04/07 09:18:18;;;;;;;;;;;;;;;3.82;54.80;96769.23;1705056;81;20613;-68
2021/04/07 09:20:47;;;;;;;;;;;;;;;3.74;56.15;96767.00;1695204;80;21983;-74
2021/04/07 09:23:29;;;;;;;;;;;;;;;3.76;55.69;96762.34;1715409;82;20600;-68
2021/04/07 09:26:10;;;;;;;;;;;;;;;3.86;56.78;96757.89;1708758;82;20207;-69
2021/04/07 09:28:42;;;;;;;;;;;;;;;4.08;57.94;96755.00;1706925;81;20656;-67
2021/04/07 09:31:13;;;;;;;;;;;;;;;4.23;56.06;96772.23;1709457;82;20714;-70
2021/04/07 09:33:43;;;;;;;;;;;;;;;4.21;54.64;96763.06;1709836;82;21858;-67
2021/04/07 09:36:12;;;;;;;;;;;;;;;4.08;51.80;96769.30;1713870;81;20488;-68
2021/04/07 09:38:46;;;;;;;;;;;;;;;4.01;52.74;96762.13;1713554;81;20141;-71
2021/04/07 09:41:16;;;;;;;;;;;;;;;4.00;53.51;96768.84;1715775;81;20550;-71
2021/04/07 09:43:45;;;;;;;;;;;;;;;4.09;54.29;96765.69;1708894;82;20629;-72
2021/04/07 09:46:13;;;;;;;;;;;;;;;4.24;54.91;96770.42;1710935;81;21559;-68
2021/04/07 09:48:52;;;;;;;;;;;;;;;4.35;55.78;96770.91;1709622;81;20393;-69
2021/04/07 09:51:32;;;;;;;;;;;;;;;4.43;54.63;96773.16;1675072;84;20489;-67
2021/04/07 09:54:20;;;;;;;;;;;;;;;4.39;54.63;96781.15;1672475;83;20547;-67
2021/04/07 09:57:01;;;;;;;;;;;;;;;4.40;52.65;96791.81;1675013;83;20766;-65
2021/04/07 09:59:35;;;;;;;;;;;;;;;4.48;53.63;96780.27;1702661;82;21980;-71
2021/04/07 10:02:05;;;;;;;;;;;;;;;4.65;54.32;96768.13;1711003;80;20499;-67
2021/04/07 10:04:35;;;;;;;;;;;;;;;4.86;54.55;96766.19;1714922;81;20404;-66
2021/04/07 10:07:11;;;;;;;;;;;;;;;5.03;53.94;96768.34;1706259;81;20482;-65
2021/04/07 10:09:41;;;;;;;;;;;;;;;5.14;52.82;96764.09;1703436;81;20598;-65
2021/04/07 10:12:10;;;;;;;;;;;;;;;5.17;51.10;96775.86;1714545;81;21804;-62
2021/04/07 10:14:50;;;;;;;;;;;;;;;5.09;51.43;96779.13;1728365;81;20564;-67
2021/04/07 10:17:19;;;;;;;;;;;;;;;5.00;51.75;96775.81;1723493;81;20836;-65
2021/04/07 10:19:51;;;;;;;;;;;;;;;4.86;50.15;96779.20;1666787;83;20927;-64
2021/04/07 10:22:29;;;;;;;;;;;;;;;4.74;50.55;96777.67;1672846;84;20807;-66
2021/04/07 10:25:04;;;;;;;;;;;;;;;4.69;51.61;96773.93;1681251;82;21852;-65
2021/04/07 10:27:29;;;;;;;;;;;;;;;4.83;52.06;96767.15;1683403;83;20797;-65
2021/04/07 10:30:04;;;;;;;;;;;;;;;5.03;51.71;96770.95;1679639;82;33719;-67
2021/04/07 10:32:38;;;;;;;;;;;;;;;5.27;51.50;96773.42;1699513;82;20856;-66
2021/04/07 10:35:06;;;;;;;;;;;;;;;5.52;48.66;96786.09;1703200;81;20698;-66
2021/04/07 10:37:35;;;;;;;;;;;;;;;5.61;46.41;96788.59;1700190;81;21895;-67
2021/04/07 10:40:06;;;;;;;;;;;;;;;5.49;46.77;96792.55;1700077;82;20546;-68
2021/04/07 10:42:34;;;;;;;;;;;;;;;5.45;48.14;96784.95;1704787;82;20570;-67
2021/04/07 10:45:04;;;;;;;;;;;;;;;5.36;48.23;96796.26;1688495;83;20607;-67
2021/04/07 10:47:35;;;;;;;;;;;;;;;5.21;48.13;96793.89;1714969;81;20536;-67
2021/04/07 10:50:03;;;;;;;;;;;;;;;5.09;47.92;96792.66;1707426;82;21879;-65
2021/04/07 10:52:39;;;;;;;;;;;;;;;5.09;47.95;96794.75;1708921;82;20569;-65
2021/04/07 10:55:10;;;;;;;;;;;;;;;5.22;45.72;96790.27;1718484;81;20574;-66
2021/04/07 10:57:39;;;;;;;;;;;;;;;5.38;46.52;96781.70;1711324;81;20497;-68
2021/04/07 11:00:10;;;;;;;;;;;;;;;5.58;45.55;96775.52;1712877;81;20602;-67
2021/04/07 11:02:45;;;;;;;;;;;;;;;5.77;46.60;96771.63;1701152;82;21915;-67
2021/04/07 11:05:18;;;;;;;;;;;;;;;5.99;45.04;96774.84;1709277;80;20568;-66
2021/04/07 11:07:46;;;;;;;;;;;;;;;6.16;46.29;96773.02;1715424;81;20596;-71
2021/04/07 11:10:16;;;;;;;;;;;;;;;6.19;44.43;96781.17;1708721;81;20579;-69
2021/04/07 11:12:46;;;;;;;;;;;;;;;6.06;45.10;96793.73;1712447;81;20177;-71
2021/04/07 11:15:15;;;;;;;;;;;;;;;5.91;45.59;96789.08;1671157;82;22000;-71
2021/04/07 11:17:53;;;;;;;;;;;;;;;5.89;46.05;96784.63;1697726;81;20151;-68
2021/04/07 11:20:22;;;;;;;;;;;;;;;6.01;45.81;96785.84;1713407;81;20520;-68
2021/04/07 11:22:50;;;;;;;;;;;;;;;6.18;44.06;96780.89;1689137;81;20447;-69
2021/04/07 11:25:20;;;;;;;;;;;;;;;6.36;44.20;96779.80;1701857;81;20883;-68
2021/04/07 11:27:50;;;;;;;;;;;;;;;6.54;43.04;96784.75;1676348;83;21821;-71
2021/04/07 11:30:19;;;;;;;;;;;;;;;6.62;42.98;96792.68;1676426;83;20299;-68
2021/04/07 11:32:51;;;;;;;;;;;;;;;6.50;46.74;96800.61;1675741;83;20593;-67
2021/04/07 11:35:34;;;;;;;;;;;;;;;6.24;48.84;96789.05;1673505;83;21200;-66
2021/04/07 11:37:59;;;;;;;;;;;;;;;6.05;47.64;96795.55;1710714;81;20464;-64
2021/04/07 11:43:10;;;;;;;;;;;;;;;5.78;45.44;96782.34;1708124;81;20499;-64
2021/04/07 11:45:35;;;;;;;;;;;;;;;5.90;44.94;96780.21;1705629;81;20527;-68
2021/04/07 11:48:08;;;;;;;;;;;;;;;6.01;45.89;96784.02;1721152;81;20968;-67
2021/04/07 11:50:35;;;;;;;;;;;;;;;6.15;42.79;96777.95;1709613;81;20554;-66
2021/04/07 11:53:04;;;;;;;;;;;;;;;6.16;41.65;96782.14;1723259;81;21961;-64
2021/04/07 11:55:32;;;;;;;;;;;;;;;6.12;41.88;96779.21;1710967;81;20421;-69
2021/04/07 11:58:00;;;;;;;;;;;;;;;6.03;40.61;96775.45;1716460;81;20143;-73
2021/04/07 12:00:28;;;;;;;;;;;;;;;5.96;40.98;96780.56;1716783;80;20503;-69
2021/04/07 12:02:57;;;;;;;;;;;;;;;5.92;40.05;96776.83;1722406;81;21056;-71
2021/04/07 12:05:29;;;;;;;;;;;;;;;5.85;40.54;96777.75;1718782;81;21893;-70
2021/04/07 12:07:55;;;;;;;;;;;;;;;5.83;40.99;96784.26;1714304;81;20485;-70
2021/04/07 12:10:24;;;;;;;;;;;;;;;5.92;41.81;96782.05;1712040;80;20664;-69
2021/04/07 12:12:51;;;;;;;;;;;;;;;6.09;41.44;96783.63;1704798;80;20676;-73
2021/04/07 12:15:20;;;;;;;;;;;;;;;6.25;41.30;96774.19;1724509;80;20770;-69
2021/04/07 12:17:50;;;;;;;;;;;;;;;6.33;40.84;96782.91;1726341;81;22065;-74
2021/04/07 12:20:20;;;;;;;;;;;;;;;6.34;40.56;96784.47;1713130;80;20605;-69
2021/04/07 12:22:52;;;;;;;;;;;;;;;6.27;40.52;96802.91;1698820;81;20648;-69
2021/04/07 12:25:20;;;;;;;;;;;;;;;6.11;38.30;96798.53;1716933;80;20494;-67
2021/04/07 12:27:48;;;;;;;;;;;;;;;5.91;39.13;96802.11;1681598;82;20899;-73
2021/04/07 12:30:16;;;;;;;;;;;;;;;5.78;40.75;96801.10;1665446;84;21766;-68
2021/04/07 12:32:45;;;;;;;;;;;;;;;5.78;41.97;96800.59;1651645;82;20556;-71
2021/04/07 12:35:15;;;;;;;;;;;;;;;5.92;41.79;96801.60;1672215;82;20442;-66
2021/04/07 12:37:45;;;;;;;;;;;;;;;6.07;40.77;96800.02;1660721;84;20733;-70
2021/04/07 12:40:13;;;;;;;;;;;;;;;6.30;40.60;96793.03;1668741;83;20641;-71
2021/04/07 12:42:41;;;;;;;;;;;;;;;6.45;37.72;96803.16;1667649;83;21992;-68
2021/04/07 12:45:09;;;;;;;;;;;;;;;6.57;37.69;96789.47;1658422;83;20525;-74
2021/04/07 12:47:37;;;;;;;;;;;;;;;6.71;39.12;96793.81;1684793;83;20286;-71
2021/04/07 12:50:06;;;;;;;;;;;;;;;6.82;37.59;96809.09;1665486;84;20520;-74
2021/04/07 12:52:33;;;;;;;;;;;;;;;6.75;38.33;96801.97;1716981;80;20614;-77
2021/04/07 12:55:01;;;;;;;;;;;;;;;6.60;39.86;96802.56;1702253;81;21870;-76
2021/04/07 12:57:31;;;;;;;;;;;;;;;6.36;41.06;96809.81;1711917;81;20602;-75
2021/04/07 12:59:59;;;;;;;;;;;;;;;6.20;42.52;96805.41;1710376;82;20213;-72
2021/04/07 13:02:27;;;;;;;;;;;;;;;6.22;39.82;96805.45;1699743;82;20548;-75
2021/04/07 13:04:56;;;;;;;;;;;;;;;6.35;39.97;96797.00;1717405;82;20481;-70
2021/04/07 13:07:23;;;;;;;;;;;;;;;6.51;39.38;96795.66;1716782;81;22082;-71
2021/04/07 13:09:53;;;;;;;;;;;;;;;6.69;38.00;96812.88;1715183;81;20478;-72
2021/04/07 13:12:21;;;;;;;;;;;;;;;6.87;36.31;96833.96;1723881;81;20390;-68
2021/04/07 13:14:49;;;;;;;;;;;;;;;6.91;35.50;96811.05;1723927;81;20547;-62
2021/04/07 13:17:17;;;;;;;;;;;;;;;6.87;36.15;96806.02;1717291;81;20643;-64
2021/04/07 13:19:52;;;;;;;;;;;;;;;6.81;37.11;96817.97;1704511;81;21881;-62
2021/04/07 13:22:16;;;;;;;;;;;;;;;6.70;35.83;96826.72;1695391;82;20594;-62
2021/04/07 13:24:44;;;;;;;;;;;;;;;6.57;37.95;96835.67;1714815;81;20484;-62
2021/04/07 13:27:14;;;;;;;;;;;;;;;6.51;39.43;96841.34;1710578;82;20588;-63
2021/04/07 13:29:42;;;;;;;;;;;;;;;6.45;40.03;96838.91;1717110;82;20561;-61
2021/04/07 13:32:11;;;;;;;;;;;;;;;6.41;40.90;96841.20;1714196;82;21855;-62
2021/04/07 13:34:49;;;;;;;;;;;;;;;6.41;41.98;96844.34;1710648;82;20487;-64
